createdAt,value
2023-04-17T00:02:43.277Z,8.28
2023-04-17T00:05:57.045Z,8.28
2023-04-17T00:09:09.441Z,8.22
2023-04-17T00:12:21.964Z,8.24
2023-04-17T00:15:34.402Z,8.22
2023-04-17T00:18:46.479Z,8.21
2023-04-17T00:21:58.343Z,8.10
2023-04-17T00:25:13.132Z,8.00
2023-04-17T00:28:25.310Z,7.90
2023-04-17T00:31:37.539Z,7.89
2023-04-17T00:34:50.562Z,7.87
2023-04-17T00:38:02.578Z,7.83
2023-04-17T00:41:14.834Z,7.84
2023-04-17T00:44:26.906Z,7.85
2023-04-17T00:47:39.214Z,7.84
2023-04-17T00:50:52.767Z,7.83
2023-04-17T00:54:06.220Z,7.79
2023-04-17T00:57:18.648Z,7.67
2023-04-17T01:00:32.406Z,7.72
2023-04-17T01:03:44.646Z,7.69
2023-04-17T01:06:59.704Z,7.65
2023-04-17T01:10:14.176Z,7.60
2023-04-17T01:13:26.502Z,7.63
2023-04-17T01:16:40.558Z,7.64
2023-04-17T01:19:53.798Z,7.62
2023-04-17T01:23:06.764Z,7.65
2023-04-17T01:26:22.812Z,7.63
2023-04-17T01:29:35.074Z,7.71
2023-04-17T01:32:47.257Z,7.75
2023-04-17T01:35:59.444Z,7.74
2023-04-17T01:39:11.883Z,7.69
2023-04-17T01:42:24.426Z,7.60
2023-04-17T01:45:36.442Z,7.55
2023-04-17T01:48:48.547Z,7.51
2023-04-17T01:52:00.571Z,7.48
2023-04-17T01:55:14.426Z,7.48
2023-04-17T01:58:26.744Z,7.49
2023-04-17T02:01:39.091Z,7.49
2023-04-17T02:04:51.287Z,7.49
2023-04-17T02:08:03.357Z,7.53
2023-04-17T02:11:15.522Z,7.57
2023-04-17T02:14:27.390Z,7.67
2023-04-17T02:17:41.593Z,7.79
2023-04-17T02:20:55.757Z,7.89
2023-04-17T02:24:07.853Z,7.92
2023-04-17T02:27:19.940Z,7.97
2023-04-17T02:30:33.236Z,8.01
2023-04-17T02:33:45.725Z,8.01
2023-04-17T02:36:57.668Z,7.97
2023-04-17T02:40:11.352Z,8.02
2023-04-17T02:43:23.685Z,8.12
2023-04-17T02:46:35.841Z,8.19
2023-04-17T02:49:48.428Z,8.25
2023-04-17T02:53:00.403Z,8.28
2023-04-17T03:05:15.275Z,8.42
2023-04-17T03:08:32.592Z,8.40
2023-04-17T03:11:44.085Z,8.44
2023-04-17T03:14:56.194Z,8.48
2023-04-17T03:18:08.655Z,8.51
2023-04-17T03:21:20.780Z,8.61
2023-04-17T03:24:33.671Z,8.65
2023-04-17T03:27:46.954Z,8.65
2023-04-17T03:31:01.607Z,8.71
2023-04-17T03:34:15.850Z,8.73
2023-04-17T03:37:28.178Z,8.77
2023-04-17T03:40:40.623Z,8.79
2023-04-17T03:43:53.204Z,8.71
2023-04-17T03:47:05.230Z,8.69
2023-04-17T03:50:18.466Z,8.69
2023-04-17T03:53:38.321Z,8.77
2023-04-17T03:56:52.253Z,8.81
2023-04-17T04:00:04.965Z,8.81
2023-04-17T04:03:19.035Z,8.80
2023-04-17T04:06:35.422Z,8.76
2023-04-17T04:09:48.479Z,8.81
2023-04-17T04:13:01.920Z,8.75
2023-04-17T04:16:15.869Z,8.82
2023-04-17T04:55:14.238Z,9.04
2023-04-17T04:58:29.871Z,9.06
2023-04-17T05:01:45.078Z,9.10
2023-04-17T05:07:59.501Z,9.27
2023-04-17T05:14:16.346Z,9.19
2023-04-17T05:34:14.953Z,9.55
2023-04-17T05:36:44.740Z,9.63
2023-04-17T05:51:36.524Z,9.68
2023-04-17T05:54:50.161Z,9.70
2023-04-17T05:58:39.632Z,9.58
2023-04-17T06:14:05.187Z,9.78
2023-04-17T06:17:17.545Z,9.82
2023-04-17T06:20:30.145Z,9.95
2023-04-17T06:23:42.158Z,9.95
2023-04-17T06:26:54.358Z,10.02
2023-04-17T06:30:06.574Z,9.96
2023-04-17T06:33:21.230Z,9.96
2023-04-17T06:36:33.562Z,9.98
2023-04-17T06:39:47.446Z,10.02
2023-04-17T06:42:59.969Z,10.09
2023-04-17T06:46:13.264Z,10.08
2023-04-17T06:49:25.726Z,10.08
2023-04-17T06:52:38.027Z,10.05
2023-04-17T06:55:50.293Z,10.12
2023-04-17T06:59:03.191Z,10.21
2023-04-17T07:02:15.788Z,10.23
2023-04-17T07:05:28.286Z,10.30
2023-04-17T07:08:40.564Z,10.35
2023-04-17T07:11:52.680Z,10.34
2023-04-17T07:15:04.936Z,10.36
2023-04-17T07:18:17.189Z,10.46
2023-04-17T07:21:29.311Z,10.50
2023-04-17T07:24:41.462Z,10.59
2023-04-17T07:27:53.580Z,10.67
2023-04-17T07:31:08.301Z,10.68
2023-04-17T07:34:20.564Z,10.67
2023-04-17T07:37:33.113Z,10.72
2023-04-17T07:40:45.592Z,10.78
2023-04-17T07:43:59.082Z,10.89
2023-04-17T07:47:11.511Z,10.94
2023-04-17T07:50:24.259Z,10.78
2023-04-17T07:53:37.561Z,10.67
2023-04-17T07:56:50.884Z,10.82
2023-04-17T08:00:03.853Z,10.85
2023-04-17T08:03:18.452Z,10.80
2023-04-17T08:06:31.123Z,10.81
2023-04-17T08:09:44.082Z,10.77
2023-04-17T08:12:56.443Z,10.74
2023-04-17T08:16:08.688Z,10.74
2023-04-17T08:19:21.118Z,10.68
2023-04-17T08:22:34.096Z,10.71
2023-04-17T08:25:46.254Z,10.73
2023-04-17T08:29:00.479Z,10.77
2023-04-17T08:32:14.608Z,10.83
2023-04-17T08:35:27.064Z,10.84
2023-04-17T08:39:13.866Z,10.86
2023-04-17T08:42:25.689Z,10.82
2023-04-17T08:45:38.698Z,10.82
2023-04-17T08:48:52.293Z,10.82
2023-04-17T08:52:09.878Z,10.82
2023-04-17T08:55:25.197Z,10.79
2023-04-17T08:58:40.248Z,10.82
2023-04-17T09:02:10.648Z,10.81
2023-04-17T09:05:30.608Z,10.89
2023-04-17T09:08:43.356Z,10.95
2023-04-17T09:12:14.603Z,10.91
2023-04-17T09:15:27.679Z,10.91
2023-04-17T09:18:41.358Z,10.92
2023-04-17T09:21:53.652Z,10.91
2023-04-17T09:25:06.173Z,10.94
2023-04-17T09:28:20.168Z,10.97
2023-04-17T09:31:38.141Z,11.04
2023-04-17T09:34:50.844Z,11.17
2023-04-17T09:38:03.569Z,11.22
2023-04-17T09:41:29.368Z,11.34
2023-04-17T09:44:42.547Z,11.49
2023-04-17T09:47:56.985Z,11.62
2023-04-17T09:51:09.523Z,11.72
2023-04-17T09:54:23.312Z,11.78
2023-04-17T09:57:35.927Z,11.91
2023-04-17T10:00:49.089Z,11.96
2023-04-17T10:04:04.750Z,11.98
2023-04-17T10:07:18.977Z,12.07
2023-04-17T10:10:34.366Z,12.21
2023-04-17T10:13:49.569Z,12.38
2023-04-17T10:17:02.320Z,12.35
2023-04-17T10:20:46.536Z,12.45
2023-04-17T10:24:00.144Z,12.54
2023-04-17T10:27:45.581Z,12.57
2023-04-17T10:31:02.216Z,12.61
2023-04-17T10:34:18.028Z,12.43
2023-04-17T10:38:02.590Z,12.47
2023-04-17T10:41:16.375Z,12.50
2023-04-17T10:44:30.507Z,12.41
2023-04-17T10:47:45.072Z,12.34
2023-04-17T10:50:57.285Z,12.25
2023-04-17T10:54:10.808Z,12.21
2023-04-17T10:57:33.842Z,12.15
2023-04-17T11:00:55.671Z,12.07
2023-04-17T11:04:08.374Z,12.14
2023-04-17T11:07:22.773Z,12.12
2023-04-17T11:10:35.267Z,12.12
2023-04-17T11:13:52.703Z,12.06
2023-04-17T11:17:05.171Z,12.13
2023-04-17T11:20:20.907Z,12.22
2023-04-17T11:23:37.868Z,12.12
2023-04-17T11:26:54.083Z,12.03
2023-04-17T11:30:06.232Z,12.03
2023-04-17T11:33:18.806Z,12.07
2023-04-17T11:36:31.419Z,12.01
2023-04-17T11:39:46.359Z,12.13
2023-04-17T11:42:58.535Z,11.95
2023-04-17T11:46:11.064Z,11.92
2023-04-17T11:49:30.407Z,11.85
2023-04-17T11:52:42.434Z,11.86
2023-04-17T11:55:56.504Z,11.83
2023-04-17T11:59:08.649Z,11.74
2023-04-17T12:02:21.266Z,11.77
2023-04-17T12:05:35.297Z,11.78
2023-04-17T12:08:53.711Z,11.78
2023-04-17T12:12:09.021Z,11.86
2023-04-17T12:15:21.689Z,11.87
2023-04-17T12:18:35.313Z,11.83
2023-04-17T12:21:48.006Z,11.70
2023-04-17T12:25:00.337Z,11.67
2023-04-17T12:28:13.198Z,11.68
2023-04-17T12:31:25.910Z,11.69
2023-04-17T12:34:38.057Z,11.66
2023-04-17T12:37:51.606Z,11.56
2023-04-17T12:41:03.791Z,11.57
2023-04-17T12:44:16.315Z,11.46
2023-04-17T12:47:28.375Z,11.58
2023-04-17T12:50:43.070Z,11.53
2023-04-17T12:53:55.399Z,11.50
2023-04-17T12:57:07.714Z,11.42
2023-04-17T13:00:22.700Z,11.24
2023-04-17T13:03:35.257Z,11.29
2023-04-17T13:06:47.733Z,11.28
2023-04-17T13:09:59.816Z,11.34
2023-04-17T13:13:11.903Z,11.22
2023-04-17T13:16:24.154Z,11.23
2023-04-17T13:19:39.602Z,11.20
2023-04-17T13:22:51.632Z,11.25
2023-04-17T13:26:03.877Z,11.25
2023-04-17T13:29:18.510Z,11.29
2023-04-17T13:32:30.292Z,11.28
2023-04-17T13:35:42.703Z,11.28
2023-04-17T13:38:54.838Z,11.29
2023-04-17T13:42:06.896Z,11.34
2023-04-17T13:45:19.598Z,11.39
2023-04-17T13:48:31.910Z,11.43
2023-04-17T13:51:44.075Z,11.50
2023-04-17T13:54:56.226Z,11.44
2023-04-17T13:58:09.040Z,11.44
2023-04-17T14:01:21.323Z,11.40
2023-04-17T14:04:33.942Z,11.33
2023-04-17T14:07:47.412Z,11.26
2023-04-17T14:11:00.151Z,11.33
2023-04-17T14:14:13.003Z,11.38
2023-04-17T14:17:25.294Z,11.20
2023-04-17T14:20:37.813Z,11.29
2023-04-17T14:23:51.684Z,11.32
2023-04-17T14:27:03.953Z,11.33
2023-04-17T14:30:17.967Z,11.35
2023-04-17T14:33:30.189Z,11.27
2023-04-17T14:36:43.795Z,11.24
2023-04-17T14:39:56.169Z,11.11
2023-04-17T14:43:08.321Z,11.07
2023-04-17T14:46:20.739Z,11.07
2023-04-17T14:49:33.052Z,11.05
2023-04-17T14:52:45.268Z,10.93
2023-04-17T14:55:59.378Z,10.86
2023-04-17T14:59:29.565Z,10.88
2023-04-17T15:02:46.625Z,10.89
2023-04-17T15:06:02.649Z,10.93
2023-04-17T15:09:15.296Z,10.93
2023-04-17T15:12:28.093Z,10.96
2023-04-17T15:15:40.355Z,10.94
2023-04-17T15:18:52.522Z,10.87
2023-04-17T15:22:04.930Z,10.87
2023-04-17T15:25:17.576Z,10.97
2023-04-17T15:28:29.793Z,10.96
2023-04-17T15:31:42.734Z,11.03
2023-04-17T15:34:55.021Z,10.96
2023-04-17T15:38:07.128Z,10.96
2023-04-17T15:41:19.330Z,10.99
2023-04-17T15:44:31.592Z,10.94
2023-04-17T15:47:48.511Z,10.91
2023-04-17T15:51:02.041Z,10.90
2023-04-17T15:54:15.283Z,10.97
2023-04-17T15:57:27.419Z,10.95
2023-04-17T16:00:39.724Z,10.94
2023-04-17T16:03:52.096Z,10.83
2023-04-17T16:07:06.084Z,10.82
2023-04-17T16:10:24.830Z,10.81
2023-04-17T16:13:46.226Z,10.80
2023-04-17T16:17:00.525Z,10.81
2023-04-17T16:20:15.917Z,10.80
2023-04-17T16:23:28.063Z,10.81
2023-04-17T16:26:42.851Z,10.75
2023-04-17T16:29:55.119Z,10.78
2023-04-17T16:33:07.447Z,10.77
2023-04-17T16:36:19.761Z,10.76
2023-04-17T16:39:32.145Z,10.71
2023-04-17T16:42:44.656Z,10.66
2023-04-17T16:45:57.624Z,10.61
2023-04-17T16:49:11.809Z,10.66
2023-04-17T16:52:24.441Z,10.65
2023-04-17T16:55:36.594Z,10.65
2023-04-17T16:58:48.927Z,10.64
2023-04-17T17:02:02.544Z,10.59
2023-04-17T17:05:16.646Z,10.49
2023-04-17T17:08:29.112Z,10.53
2023-04-17T17:11:41.428Z,10.54
2023-04-17T17:14:53.462Z,10.53
2023-04-17T17:18:05.582Z,10.50
2023-04-17T17:21:18.813Z,10.43
2023-04-17T17:24:31.648Z,10.44
2023-04-17T17:27:43.930Z,10.44
2023-04-17T17:30:57.994Z,10.44
2023-04-17T17:34:25.249Z,10.47
2023-04-17T17:37:27.098Z,10.48
2023-04-17T17:40:39.321Z,10.41
2023-04-17T17:43:51.561Z,10.45
2023-04-17T17:47:06.375Z,10.41
2023-04-17T17:50:18.847Z,10.43
2023-04-17T17:53:31.502Z,10.40
2023-04-17T17:56:43.970Z,10.37
2023-04-17T17:59:58.194Z,10.40
2023-04-17T18:03:10.824Z,10.33
2023-04-17T18:06:23.440Z,10.29
2023-04-17T18:09:35.507Z,10.32
2023-04-17T18:12:47.788Z,10.26
2023-04-17T18:15:59.968Z,10.26
2023-04-17T18:19:12.558Z,10.22
2023-04-17T18:22:24.921Z,10.26
2023-04-17T18:25:37.828Z,10.24
2023-04-17T18:28:50.014Z,10.18
2023-04-17T18:32:02.338Z,10.19
2023-04-17T18:35:15.999Z,10.10
2023-04-17T18:38:28.362Z,10.10
2023-04-17T18:41:40.868Z,10.09
2023-04-17T18:44:53.288Z,10.03
2023-04-17T18:48:05.754Z,10.04
2023-04-17T18:51:20.965Z,10.09
2023-04-17T18:54:35.048Z,9.85
2023-04-17T19:11:51.116Z,9.94
2023-04-17T19:15:06.503Z,9.93
2023-04-17T19:39:58.347Z,9.87
2023-04-17T19:43:10.851Z,9.88
2023-04-17T19:55:23.564Z,9.81
2023-04-17T20:01:37.358Z,9.88
2023-04-17T20:32:55.793Z,9.76
2023-04-17T20:36:08.738Z,9.79
2023-04-17T20:42:21.264Z,9.75
2023-04-17T20:45:33.608Z,9.77
2023-04-17T20:48:45.834Z,9.77
2023-04-17T20:51:59.218Z,9.78
2023-04-17T20:55:13.162Z,9.73
2023-04-17T20:58:25.632Z,9.76
2023-04-17T21:01:38.163Z,9.74
2023-04-17T21:04:50.595Z,9.76
2023-04-17T21:08:02.936Z,9.75
2023-04-17T21:11:14.988Z,9.80
2023-04-17T21:14:27.493Z,9.74
2023-04-17T21:17:39.520Z,9.79
2023-04-17T21:23:56.392Z,9.80
